createdAt,value
2022-12-26T00:02:23.108Z,34.20
2022-12-26T00:07:22.019Z,37.60
2022-12-26T00:12:20.706Z,37.35
2022-12-26T00:17:20.894Z,37.55
2022-12-26T00:22:19.870Z,35.70
2022-12-26T00:27:18.723Z,34.22
2022-12-26T00:32:18.381Z,35.60
2022-12-26T00:37:18.548Z,32.78
2022-12-26T00:42:17.400Z,29.30
2022-12-26T00:47:16.377Z,22.45
2022-12-26T00:52:15.205Z,22.33
2022-12-26T00:57:15.355Z,24.55
2022-12-26T01:02:28.076Z,23.65
2022-12-26T01:07:26.984Z,22.97
2022-12-26T01:12:27.576Z,26.25
2022-12-26T01:17:27.288Z,21.92
2022-12-26T01:22:26.800Z,18.10
2022-12-26T01:27:27.731Z,21.48
2022-12-26T01:32:28.231Z,19.83
2022-12-26T01:37:27.088Z,45.28
2022-12-26T01:42:28.246Z,42.63
2022-12-26T01:47:41.595Z,35.53
2022-12-26T01:52:46.437Z,35.72
2022-12-26T01:57:55.935Z,52.38
2022-12-26T02:03:13.161Z,40.33
2022-12-26T02:08:15.884Z,38.85
2022-12-26T02:13:18.335Z,29.93
2022-12-26T02:18:17.216Z,30.52
2022-12-26T02:24:02.927Z,28.38
2022-12-26T02:29:42.689Z,29.38
2022-12-26T02:34:52.215Z,30.77
2022-12-26T02:40:07.920Z,34.65
2022-12-26T02:45:32.058Z,28.35
2022-12-26T02:51:05.607Z,25.88
2022-12-26T02:56:29.363Z,23.58
2022-12-26T03:01:52.000Z,20.35
2022-12-26T03:07:15.898Z,22.50
2022-12-26T03:12:50.849Z,20.52
2022-12-26T03:17:53.407Z,23.10
2022-12-26T03:22:59.776Z,22.67
2022-12-26T03:27:58.704Z,24.88
2022-12-26T03:32:58.603Z,21.45
2022-12-26T03:38:04.173Z,19.25
2022-12-26T03:43:29.602Z,18.52
2022-12-26T03:48:51.300Z,18.15
2022-12-26T03:54:14.394Z,23.02
2022-12-26T03:59:34.026Z,210.67
2022-12-26T04:04:52.872Z,180.80
2022-12-26T04:10:15.878Z,34.00
2022-12-26T04:15:41.595Z,25.85
2022-12-26T04:20:49.920Z,33.85
2022-12-26T04:26:15.661Z,33.00
2022-12-26T04:31:39.905Z,34.13
2022-12-26T04:37:05.856Z,25.35
2022-12-26T04:42:25.232Z,32.58
2022-12-26T04:47:24.284Z,27.50
2022-12-26T04:52:23.071Z,27.60
2022-12-26T04:57:23.409Z,37.85
2022-12-26T05:02:39.558Z,35.15
2022-12-26T05:07:56.577Z,31.25
2022-12-26T05:12:57.099Z,31.05
2022-12-26T05:18:13.622Z,29.40
2022-12-26T05:23:37.259Z,29.00
2022-12-26T05:28:43.598Z,28.65
2022-12-26T05:33:59.914Z,25.70
2022-12-26T05:38:59.106Z,29.42
2022-12-26T05:43:59.588Z,57.50
2022-12-26T05:48:58.421Z,74.15
2022-12-26T05:53:57.393Z,45.35
2022-12-26T05:58:57.593Z,39.22
2022-12-26T06:04:00.290Z,62.97
2022-12-26T06:08:59.523Z,57.17
2022-12-26T06:13:58.917Z,62.65
2022-12-26T06:18:59.038Z,82.00
2022-12-26T06:23:57.824Z,74.90
2022-12-26T06:28:56.647Z,62.15
2022-12-26T06:34:01.462Z,37.53
2022-12-26T06:39:01.260Z,27.50
2022-12-26T06:44:00.177Z,56.38
2022-12-26T06:49:00.502Z,59.78
2022-12-26T06:54:11.975Z,66.05
2022-12-26T06:59:12.824Z,56.85
2022-12-26T07:04:14.469Z,54.15
2022-12-26T07:09:17.002Z,33.20
2022-12-26T07:14:18.450Z,26.08
2022-12-26T07:19:18.731Z,34.20
2022-12-26T07:24:21.094Z,34.58
2022-12-26T07:29:20.300Z,33.72
2022-12-26T07:34:20.684Z,47.08
2022-12-26T07:39:19.919Z,80.90
2022-12-26T07:44:20.252Z,48.08
2022-12-26T07:49:20.444Z,31.73
2022-12-26T07:54:22.005Z,29.85
2022-12-26T07:59:20.866Z,80.85
2022-12-26T08:04:21.634Z,65.88
2022-12-26T08:09:22.019Z,84.88
2022-12-26T08:14:23.741Z,43.07
2022-12-26T08:19:25.931Z,33.97
2022-12-26T08:24:28.117Z,34.58
2022-12-26T08:29:27.312Z,31.48
2022-12-26T08:34:33.798Z,32.88
2022-12-26T08:39:34.862Z,29.85
2022-12-26T08:44:36.619Z,32.55
2022-12-26T08:49:40.654Z,31.42
2022-12-26T08:54:39.749Z,30.88
2022-12-26T08:59:38.585Z,33.17
2022-12-26T09:04:38.869Z,36.05
2022-12-26T09:09:37.633Z,38.13
2022-12-26T09:14:36.936Z,38.35
2022-12-26T09:19:35.962Z,34.28
2022-12-26T09:24:37.529Z,35.10
2022-12-26T09:29:39.264Z,34.65
2022-12-26T09:34:38.599Z,34.28
2022-12-26T09:39:38.771Z,28.77
2022-12-26T09:44:49.345Z,28.40
2022-12-26T09:49:55.187Z,25.48
2022-12-26T09:54:59.996Z,23.88
2022-12-26T10:00:17.014Z,20.45
2022-12-26T10:05:22.185Z,18.92
2022-12-26T10:10:31.391Z,17.40
2022-12-26T10:15:45.489Z,16.77
2022-12-26T10:20:55.610Z,13.55
2022-12-26T10:26:02.402Z,13.20
2022-12-26T10:31:09.200Z,12.45
2022-12-26T10:36:17.816Z,11.93
2022-12-26T10:41:29.936Z,9.77
2022-12-26T10:46:47.402Z,12.40
2022-12-26T10:51:46.827Z,14.50
2022-12-26T10:56:51.001Z,8.20
2022-12-26T11:01:51.045Z,15.70
2022-12-26T11:06:54.984Z,12.07
2022-12-26T11:11:57.810Z,15.27
2022-12-26T11:16:58.831Z,13.27
2022-12-26T11:22:21.276Z,11.93
2022-12-26T11:27:28.095Z,11.00
2022-12-26T11:32:30.029Z,14.35
2022-12-26T11:37:32.700Z,17.83
2022-12-26T11:47:32.221Z,12.13
2022-12-26T11:52:38.708Z,20.50
2022-12-26T11:57:39.354Z,13.63
2022-12-26T12:02:42.610Z,7.63
2022-12-26T12:07:52.378Z,12.20
2022-12-26T12:12:58.695Z,11.23
2022-12-26T12:18:09.190Z,10.32
2022-12-26T12:23:25.845Z,6.75
2022-12-26T12:28:49.804Z,8.27
2022-12-26T12:34:02.940Z,7.68
2022-12-26T12:39:07.993Z,8.13
2022-12-26T12:44:15.009Z,8.05
2022-12-26T12:49:27.048Z,7.13
2022-12-26T12:55:03.243Z,10.48
2022-12-26T13:00:14.395Z,6.85
2022-12-26T13:05:35.866Z,8.20
2022-12-26T13:10:39.039Z,8.23
2022-12-26T13:15:44.906Z,8.70
2022-12-26T13:20:47.939Z,9.48
2022-12-26T13:25:53.508Z,10.80
2022-12-26T13:30:56.928Z,7.47
2022-12-26T13:36:01.843Z,10.25
2022-12-26T13:41:25.009Z,10.45
2022-12-26T13:46:56.566Z,17.70
2022-12-26T13:52:00.215Z,44.03
2022-12-26T13:57:29.488Z,13.20
2022-12-26T14:03:20.505Z,9.77
2022-12-26T14:08:33.337Z,9.63
2022-12-26T14:13:52.576Z,12.40
2022-12-26T14:18:58.845Z,14.82
2022-12-26T14:24:11.830Z,14.88
2022-12-26T14:29:20.974Z,16.52
2022-12-26T14:34:31.612Z,12.57
2022-12-26T14:39:41.181Z,22.20
2022-12-26T14:44:44.491Z,23.45
2022-12-26T14:49:44.359Z,29.48
2022-12-26T14:54:51.142Z,26.42
2022-12-26T15:00:15.866Z,30.00
2022-12-26T15:05:22.818Z,47.10
2022-12-26T15:10:59.163Z,29.40
2022-12-26T15:16:28.918Z,25.75
2022-12-26T15:21:57.373Z,32.15
2022-12-26T15:27:21.450Z,47.72
2022-12-26T15:32:30.660Z,63.38
2022-12-26T15:37:52.331Z,77.18
2022-12-26T15:43:12.713Z,59.22
2022-12-26T15:48:26.535Z,51.08
2022-12-26T15:53:38.649Z,65.75
2022-12-26T15:59:05.714Z,80.90
2022-12-26T16:04:20.295Z,96.22
2022-12-26T16:09:37.322Z,110.25
2022-12-26T16:14:39.292Z,146.98
2022-12-26T16:19:41.027Z,116.97
2022-12-26T16:24:43.252Z,88.60
2022-12-26T16:29:52.971Z,76.05
2022-12-26T16:34:54.283Z,75.53
2022-12-26T16:40:25.493Z,72.82
2022-12-26T16:45:25.536Z,74.20
2022-12-26T16:50:28.707Z,71.68
2022-12-26T16:55:37.878Z,75.85
2022-12-26T17:00:37.470Z,81.75
2022-12-26T17:05:39.231Z,77.97
2022-12-26T17:10:52.400Z,81.47
2022-12-26T17:16:07.427Z,68.28
2022-12-26T17:21:30.065Z,74.07
2022-12-26T17:26:31.840Z,86.50
2022-12-26T17:31:35.999Z,80.40
2022-12-26T17:41:57.865Z,79.20
2022-12-26T17:46:56.717Z,94.43
2022-12-26T17:52:01.586Z,83.70
2022-12-26T17:57:02.078Z,82.35
2022-12-26T18:02:01.031Z,82.72
2022-12-26T18:06:59.888Z,77.53
2022-12-26T18:11:58.728Z,75.38
2022-12-26T18:17:00.395Z,103.90
2022-12-26T18:21:59.105Z,96.43
2022-12-26T18:26:58.571Z,95.15
2022-12-26T18:31:58.906Z,110.07
2022-12-26T18:36:57.693Z,103.85
2022-12-26T18:41:56.457Z,109.00
2022-12-26T18:46:55.231Z,91.50
2022-12-26T18:51:55.420Z,92.30
2022-12-26T18:56:54.148Z,87.10
2022-12-26T19:01:53.012Z,84.72
2022-12-26T19:06:53.459Z,87.65
2022-12-26T19:11:53.595Z,94.78
2022-12-26T19:16:52.400Z,103.75
2022-12-26T19:21:51.306Z,90.78
2022-12-26T19:26:50.087Z,91.70
2022-12-26T19:31:50.256Z,85.55
2022-12-26T19:36:49.009Z,81.60
2022-12-26T19:41:47.829Z,82.22
2022-12-26T19:46:47.043Z,78.20
2022-12-26T19:51:47.645Z,77.25
2022-12-26T19:56:46.505Z,71.30
2022-12-26T20:01:45.483Z,73.85
2022-12-26T20:06:44.415Z,67.85
2022-12-26T20:11:49.441Z,74.65
2022-12-26T20:17:08.810Z,73.28
2022-12-26T20:22:09.513Z,87.47
2022-12-26T20:27:10.304Z,79.40
2022-12-26T20:32:12.955Z,58.88
2022-12-26T20:37:14.008Z,56.30
2022-12-26T20:42:17.849Z,45.92
2022-12-26T20:47:18.738Z,55.35
2022-12-26T20:52:19.497Z,52.63
2022-12-26T20:57:21.015Z,49.70
2022-12-26T21:02:20.684Z,38.67
2022-12-26T21:07:21.437Z,53.53
2022-12-26T21:12:22.854Z,61.13
2022-12-26T21:17:21.977Z,57.70
2022-12-26T21:22:24.782Z,57.67
2022-12-26T21:27:30.435Z,47.75
2022-12-26T21:32:31.035Z,54.17
2022-12-26T21:37:51.625Z,58.10
2022-12-26T21:42:53.118Z,48.63
2022-12-26T21:47:52.928Z,37.90
2022-12-26T21:52:53.442Z,47.53
2022-12-26T21:57:54.597Z,41.90
2022-12-26T22:03:10.662Z,55.60
2022-12-26T22:08:12.419Z,54.83
2022-12-26T22:13:13.514Z,67.70
2022-12-26T22:18:13.484Z,62.15
2022-12-26T22:23:13.762Z,60.78
2022-12-26T22:28:20.176Z,67.55
2022-12-26T22:33:21.950Z,64.32
2022-12-26T22:38:22.340Z,84.20
2022-12-26T22:43:22.577Z,72.45
2022-12-26T22:48:22.381Z,66.72
2022-12-26T22:53:24.526Z,59.78
2022-12-26T22:58:27.862Z,60.92
2022-12-26T23:03:28.195Z,62.35
2022-12-26T23:08:29.992Z,59.92
2022-12-26T23:13:32.653Z,65.13
2022-12-26T23:18:59.049Z,68.30
2022-12-26T23:23:58.174Z,72.68
2022-12-26T23:29:15.549Z,54.33
2022-12-26T23:34:14.498Z,54.00
2022-12-26T23:39:13.632Z,46.28
2022-12-26T23:44:13.942Z,41.08
2022-12-26T23:49:14.203Z,62.28
2022-12-26T23:54:13.074Z,49.85
2022-12-26T23:59:13.244Z,44.13
